Time;durP1;ratioP1;P1;durP2;ratioP2;P2;SDS_P1;SDS_P2;PMS_P1;PMS_P2;Temp;Humidity;BMP_temperature;BMP_pressure;BME280_temperature;BME280_humidity;BME280_pressure;Samples;Min_cycle;Max_cycle;Signal;HPM_P1;HPM_P2
2023/05/02 00:01:24;;;;;;;24.08;16.63;;;;;;;;;;5079323;28;20700;-69
2023/05/02 00:03:50;;;;;;;22.10;14.82;;;;;;;;;;5062049;28;20215;-69
2023/05/02 00:06:15;;;;;;;25.70;16.10;;;;;;;;;;5055829;28;20347;-69
2023/05/02 00:08:41;;;;;;;25.48;15.90;;;;;;;;;;5059225;28;20315;-68
2023/05/02 00:11:06;;;;;;;22.13;15.23;;;;;;;;;;5067620;28;20226;-67
2023/05/02 00:13:31;;;;;;;19.42;12.98;;;;;;;;;;5083005;28;20236;-68
2023/05/02 00:15:56;;;;;;;20.77;13.35;;;;;;;;;;5073684;28;20226;-69
2023/05/02 00:18:23;;;;;;;18.65;11.95;;;;;;;;;;5067867;28;20296;-69
2023/05/02 00:20:48;;;;;;;19.77;12.30;;;;;;;;;;5083116;28;20620;-69
2023/05/02 00:23:14;;;;;;;17.27;11.27;;;;;;;;;;5077896;28;20222;-69
2023/05/02 00:25:45;;;;;;;19.42;10.65;;;;;;;;;;5080839;28;20225;-69
2023/05/02 00:28:10;;;;;;;16.50;10.25;;;;;;;;;;5073568;28;20211;-68
2023/05/02 00:30:36;;;;;;;15.57;9.50;;;;;;;;;;5074844;28;20275;-69
2023/05/02 00:33:01;;;;;;;14.73;9.45;;;;;;;;;;5074266;28;20308;-68
2023/05/02 00:35:26;;;;;;;13.90;8.68;;;;;;;;;;5063723;28;20218;-70
2023/05/02 00:37:52;;;;;;;14.25;8.45;;;;;;;;;;5063094;28;20211;-69
2023/05/02 00:40:17;;;;;;;12.45;8.13;;;;;;;;;;5073456;28;20213;-69
2023/05/02 00:42:42;;;;;;;13.88;8.35;;;;;;;;;;5081305;28;20572;-68
2023/05/02 00:45:08;;;;;;;12.52;8.38;;;;;;;;;;5080970;28;20214;-69
2023/05/02 00:47:33;;;;;;;13.30;8.20;;;;;;;;;;5082744;28;20212;-69
2023/05/02 00:49:59;;;;;;;15.77;8.82;;;;;;;;;;5074169;28;20214;-69
2023/05/02 00:52:25;;;;;;;17.20;9.23;;;;;;;;;;5073319;28;20321;-68
2023/05/02 00:54:50;;;;;;;17.73;9.35;;;;;;;;;;5071043;28;20210;-69
2023/05/02 00:57:15;;;;;;;15.10;9.30;;;;;;;;;;5059480;28;20211;-69
2023/05/02 00:59:40;;;;;;;14.55;9.50;;;;;;;;;;5078589;28;20209;-69
2023/05/02 01:02:10;;;;;;;13.82;9.50;;;;;;;;;;5071842;28;20228;-68
2023/05/02 01:04:36;;;;;;;16.55;9.50;;;;;;;;;;5079983;28;20206;-69
2023/05/02 01:07:06;;;;;;;15.73;9.30;;;;;;;;;;5077797;28;20224;-68
2023/05/02 01:09:32;;;;;;;15.38;9.68;;;;;;;;;;5066470;28;20206;-69
2023/05/02 01:12:11;;;;;;;13.88;9.45;;;;;;;;;;5079417;28;20663;-69
2023/05/02 01:14:43;;;;;;;13.82;9.25;;;;;;;;;;5073323;28;20213;-68
2023/05/02 01:17:09;;;;;;;14.18;9.00;;;;;;;;;;5072085;28;20214;-68
2023/05/02 01:19:35;;;;;;;16.38;8.95;;;;;;;;;;5057275;28;20218;-68
2023/05/02 01:22:02;;;;;;;15.48;8.77;;;;;;;;;;5060786;28;20696;-63
2023/05/02 01:24:29;;;;;;;15.90;9.60;;;;;;;;;;5070430;28;20214;-69
2023/05/02 01:26:57;;;;;;;15.57;9.38;;;;;;;;;;5064814;28;20249;-68
2023/05/02 01:29:22;;;;;;;16.60;9.52;;;;;;;;;;5069157;28;20273;-68
2023/05/02 01:31:48;;;;;;;14.82;9.57;;;;;;;;;;5061563;28;20649;-68
2023/05/02 01:34:13;;;;;;;14.32;9.30;;;;;;;;;;5064700;28;20221;-68
2023/05/02 01:36:42;;;;;;;16.33;9.70;;;;;;;;;;5070576;28;20213;-69
2023/05/02 01:39:08;;;;;;;16.25;10.32;;;;;;;;;;5062474;28;20209;-68
2023/05/02 01:41:33;;;;;;;14.90;10.68;;;;;;;;;;5073808;28;20287;-68
2023/05/02 01:43:59;;;;;;;17.05;11.05;;;;;;;;;;5074558;28;20363;-68
2023/05/02 01:46:26;;;;;;;17.17;10.80;;;;;;;;;;5060826;28;20222;-68
2023/05/02 01:48:51;;;;;;;15.30;10.73;;;;;;;;;;5075902;28;20222;-68
2023/05/02 01:51:17;;;;;;;21.20;12.00;;;;;;;;;;5075840;28;20227;-68
2023/05/02 01:53:42;;;;;;;16.23;11.27;;;;;;;;;;5079202;28;20623;-69
2023/05/02 01:56:08;;;;;;;19.88;11.50;;;;;;;;;;5077408;28;20689;-69
2023/05/02 01:58:33;;;;;;;18.67;12.02;;;;;;;;;;5074707;28;20248;-69
2023/05/02 02:00:58;;;;;;;17.92;11.35;;;;;;;;;;5071532;28;20214;-69
2023/05/02 02:03:24;;;;;;;18.65;11.60;;;;;;;;;;5072201;28;20526;-69
2023/05/02 02:05:49;;;;;;;16.17;10.57;;;;;;;;;;5071629;28;20218;-68
2023/05/02 02:08:15;;;;;;;16.15;9.93;;;;;;;;;;5060702;28;20723;-69
2023/05/02 02:10:40;;;;;;;19.13;10.95;;;;;;;;;;5069022;28;20233;-69
2023/05/02 02:13:07;;;;;;;18.10;10.02;;;;;;;;;;5078793;28;20214;-67
2023/05/02 02:15:33;;;;;;;15.90;10.35;;;;;;;;;;5073396;28;20564;-69
2023/05/02 02:17:59;;;;;;;12.88;7.07;;;;;;;;;;5072548;28;20222;-68
2023/05/02 02:20:25;;;;;;;14.55;6.60;;;;;;;;;;5067551;28;20214;-69
2023/05/02 02:22:50;;;;;;;12.80;5.43;;;;;;;;;;5058921;28;20213;-69
2023/05/02 02:25:16;;;;;;;10.40;5.15;;;;;;;;;;5074983;28;20688;-68
2023/05/02 02:27:41;;;;;;;10.82;4.75;;;;;;;;;;5067457;28;20214;-68
2023/05/02 02:30:07;;;;;;;11.82;4.10;;;;;;;;;;5069919;28;20637;-68
2023/05/02 02:32:33;;;;;;;8.45;3.25;;;;;;;;;;5069438;28;20218;-69
2023/05/02 02:34:58;;;;;;;10.38;3.30;;;;;;;;;;5070174;28;20295;-69
2023/05/02 02:37:25;;;;;;;9.95;3.33;;;;;;;;;;5068166;28;20684;-69
2023/05/02 02:39:50;;;;;;;9.48;3.13;;;;;;;;;;5069529;28;20214;-69
2023/05/02 02:42:24;;;;;;;6.82;2.47;;;;;;;;;;5069371;28;20216;-69
2023/05/02 02:44:51;;;;;;;9.70;2.78;;;;;;;;;;5067980;28;20614;-69
2023/05/02 02:47:26;;;;;;;12.30;2.67;;;;;;;;;;5068180;28;20210;-69
2023/05/02 02:49:57;;;;;;;8.68;2.40;;;;;;;;;;5068670;28;20259;-68
2023/05/02 02:52:24;;;;;;;8.55;2.35;;;;;;;;;;5067288;28;20682;-68
2023/05/02 02:54:51;;;;;;;8.10;2.22;;;;;;;;;;5068753;28;20215;-69
2023/05/02 02:57:17;;;;;;;7.43;2.30;;;;;;;;;;5069519;28;20231;-69
2023/05/02 02:59:46;;;;;;;8.30;2.35;;;;;;;;;;5067528;28;20268;-69
2023/05/02 03:02:12;;;;;;;6.45;2.05;;;;;;;;;;5067892;28;20693;-68
2023/05/02 03:04:37;;;;;;;10.52;2.22;;;;;;;;;;5068585;28;20219;-69
2023/05/02 03:07:03;;;;;;;8.38;2.13;;;;;;;;;;5085874;28;20236;-69
2023/05/02 03:09:39;;;;;;;8.23;2.35;;;;;;;;;;5079648;28;20210;-68
2023/05/02 03:12:04;;;;;;;8.73;2.00;;;;;;;;;;5069073;28;20539;-68
2023/05/02 03:14:29;;;;;;;7.57;2.00;;;;;;;;;;5069208;28;20618;-69
2023/05/02 03:16:55;;;;;;;11.75;2.33;;;;;;;;;;5081549;28;20332;-69
2023/05/02 03:19:20;;;;;;;6.22;2.03;;;;;;;;;;5089390;28;20510;-68
2023/05/02 03:21:46;;;;;;;9.68;2.30;;;;;;;;;;5089122;28;20209;-68
2023/05/02 03:24:11;;;;;;;8.32;2.05;;;;;;;;;;5089251;28;20297;-67
2023/05/02 03:26:36;;;;;;;7.72;1.90;;;;;;;;;;5082841;28;20213;-68
2023/05/02 03:29:02;;;;;;;8.63;2.22;;;;;;;;;;5068454;28;20218;-67
2023/05/02 03:31:27;;;;;;;7.10;1.90;;;;;;;;;;5069185;28;20218;-69
2023/05/02 03:33:53;;;;;;;10.20;2.30;;;;;;;;;;5067894;28;20218;-69
2023/05/02 03:36:18;;;;;;;9.45;2.30;;;;;;;;;;5067647;28;20689;-69
2023/05/02 03:38:43;;;;;;;9.18;2.15;;;;;;;;;;5075923;28;20222;-69
2023/05/02 03:41:09;;;;;;;9.13;2.03;;;;;;;;;;5068415;28;20210;-69
2023/05/02 03:43:34;;;;;;;8.77;2.10;;;;;;;;;;5069269;28;20212;-68
2023/05/02 03:46:03;;;;;;;9.75;2.10;;;;;;;;;;5069388;28;20214;-69
2023/05/02 03:48:28;;;;;;;9.15;2.10;;;;;;;;;;5066973;28;20209;-69
2023/05/02 03:50:54;;;;;;;7.70;1.90;;;;;;;;;;5069307;28;20230;-68
2023/05/02 03:53:19;;;;;;;9.07;2.38;;;;;;;;;;5068938;28;20260;-68
2023/05/02 03:55:44;;;;;;;10.07;2.00;;;;;;;;;;5067478;28;20297;-69
2023/05/02 03:58:10;;;;;;;7.78;1.80;;;;;;;;;;5068763;28;20210;-68
2023/05/02 04:00:37;;;;;;;7.97;1.90;;;;;;;;;;5068095;28;20565;-69
2023/05/02 04:03:02;;;;;;;6.50;2.17;;;;;;;;;;5067960;28;20320;-68
2023/05/02 04:05:27;;;;;;;7.47;2.30;;;;;;;;;;5074000;28;20202;-69
2023/05/02 04:07:53;;;;;;;7.28;1.70;;;;;;;;;;5089223;28;20622;-70
2023/05/02 04:10:18;;;;;;;7.82;1.80;;;;;;;;;;5075117;28;20206;-69
2023/05/02 04:12:43;;;;;;;8.98;1.95;;;;;;;;;;5069132;28;20222;-70
2023/05/02 04:15:09;;;;;;;8.98;1.90;;;;;;;;;;5067400;28;20289;-68
2023/05/02 04:17:34;;;;;;;9.27;1.98;;;;;;;;;;5066173;28;20303;-69
2023/05/02 04:19:59;;;;;;;9.85;2.20;;;;;;;;;;5072772;28;20210;-68
2023/05/02 04:22:25;;;;;;;4.82;1.88;;;;;;;;;;5072170;28;20313;-69
2023/05/02 04:24:50;;;;;;;8.90;2.05;;;;;;;;;;5072049;28;20214;-69
2023/05/02 04:27:15;;;;;;;8.02;2.20;;;;;;;;;;5072398;28;20215;-69
2023/05/02 04:29:41;;;;;;;10.38;2.08;;;;;;;;;;5072527;28;20237;-69
2023/05/02 04:32:06;;;;;;;8.57;2.08;;;;;;;;;;5071308;28;20226;-67
2023/05/02 04:34:31;;;;;;;9.25;2.17;;;;;;;;;;5072583;28;20198;-68
2023/05/02 04:36:56;;;;;;;9.60;1.80;;;;;;;;;;5064095;28;20218;-68
2023/05/02 04:39:22;;;;;;;12.50;2.25;;;;;;;;;;5065166;28;20767;-68
2023/05/02 04:41:47;;;;;;;8.73;1.95;;;;;;;;;;5063210;28;20230;-68
2023/05/02 04:44:12;;;;;;;10.30;2.38;;;;;;;;;;5061609;28;20598;-68
2023/05/02 04:46:37;;;;;;;9.38;2.05;;;;;;;;;;5062382;28;20218;-69
2023/05/02 04:49:03;;;;;;;9.48;2.65;;;;;;;;;;5062037;28;20214;-69
2023/05/02 04:51:30;;;;;;;9.18;2.10;;;;;;;;;;5073490;28;20219;-70
2023/05/02 04:53:56;;;;;;;7.82;2.35;;;;;;;;;;5072131;28;20709;-69
2023/05/02 04:56:21;;;;;;;9.57;3.10;;;;;;;;;;5068729;28;20213;-69
2023/05/02 04:58:46;;;;;;;14.43;4.47;;;;;;;;;;5074007;28;20248;-69
2023/05/02 05:01:11;;;;;;;15.02;4.47;;;;;;;;;;5077378;28;20210;-69
2023/05/02 05:03:38;;;;;;;8.68;2.88;;;;;;;;;;5082177;28;20295;-69
2023/05/02 05:06:03;;;;;;;8.75;2.42;;;;;;;;;;5071627;28;20218;-68
2023/05/02 05:08:28;;;;;;;9.05;2.78;;;;;;;;;;5062120;28;20217;-68
2023/05/02 05:10:54;;;;;;;11.95;2.67;;;;;;;;;;5060106;28;20246;-68
2023/05/02 05:13:19;;;;;;;12.20;2.75;;;;;;;;;;5061280;28;20307;-69
2023/05/02 05:15:46;;;;;;;10.98;2.38;;;;;;;;;;5069507;28;20229;-67
2023/05/02 05:18:11;;;;;;;8.90;2.05;;;;;;;;;;5089575;28;20294;-66
2023/05/02 05:20:37;;;;;;;10.40;2.67;;;;;;;;;;5091185;28;20799;-66
2023/05/02 05:23:02;;;;;;;11.32;2.63;;;;;;;;;;5091303;28;20217;-65
2023/05/02 05:25:27;;;;;;;13.13;2.30;;;;;;;;;;5091998;28;20229;-65
2023/05/02 05:27:54;;;;;;;8.10;2.42;;;;;;;;;;5091038;28;20210;-66
2023/05/02 05:30:20;;;;;;;11.38;2.88;;;;;;;;;;5090810;28;20324;-66
2023/05/02 05:32:45;;;;;;;12.95;3.47;;;;;;;;;;5091631;28;20428;-64
2023/05/02 05:35:10;;;;;;;12.57;2.65;;;;;;;;;;5087853;28;20198;-62
2023/05/02 05:37:38;;;;;;;14.07;3.30;;;;;;;;;;5082647;28;20242;-63
2023/05/02 05:40:04;;;;;;;13.43;3.20;;;;;;;;;;5090507;28;20262;-62
2023/05/02 05:42:30;;;;;;;14.55;3.28;;;;;;;;;;5079191;28;20198;-62
2023/05/02 05:44:55;;;;;;;14.85;3.80;;;;;;;;;;5075789;28;20214;-63
2023/05/02 05:47:20;;;;;;;12.63;3.58;;;;;;;;;;5070755;28;20225;-62
2023/05/02 05:49:46;;;;;;;14.15;4.00;;;;;;;;;;5082399;28;20202;-64
2023/05/02 05:52:11;;;;;;;15.38;3.50;;;;;;;;;;5077805;28;20221;-64
2023/05/02 05:54:36;;;;;;;12.68;3.40;;;;;;;;;;5080607;28;20214;-64
2023/05/02 05:57:02;;;;;;;15.43;3.97;;;;;;;;;;5084331;28;20525;-63
2023/05/02 05:59:27;;;;;;;15.60;4.43;;;;;;;;;;5082718;28;20201;-63
2023/05/02 06:01:53;;;;;;;14.13;3.72;;;;;;;;;;5084314;28;20208;-62
2023/05/02 06:04:18;;;;;;;16.45;4.45;;;;;;;;;;5071079;28;20602;-61
2023/05/02 06:06:43;;;;;;;19.63;4.15;;;;;;;;;;5085887;28;20518;-62
2023/05/02 06:09:08;;;;;;;18.33;4.25;;;;;;;;;;5086541;28;20198;-61
2023/05/02 06:11:35;;;;;;;19.60;3.88;;;;;;;;;;5070487;28;20230;-65
2023/05/02 06:14:00;;;;;;;19.67;4.22;;;;;;;;;;5068865;28;20732;-61
2023/05/02 06:16:26;;;;;;;14.10;4.00;;;;;;;;;;5072154;28;20285;-63
2023/05/02 06:18:51;;;;;;;16.20;4.35;;;;;;;;;;5071234;28;20348;-63
2023/05/02 06:21:17;;;;;;;15.30;3.63;;;;;;;;;;5069879;28;20267;-61
2023/05/02 06:23:42;;;;;;;20.42;4.05;;;;;;;;;;5072059;28;20704;-61
2023/05/02 06:26:08;;;;;;;15.90;3.70;;;;;;;;;;5071098;28;20210;-60
2023/05/02 06:28:34;;;;;;;15.45;3.78;;;;;;;;;;5074793;28;20291;-63
2023/05/02 06:31:00;;;;;;;14.82;3.55;;;;;;;;;;5078461;28;20561;-62
2023/05/02 06:33:26;;;;;;;18.73;4.03;;;;;;;;;;5079974;28;20210;-62
2023/05/02 06:35:52;;;;;;;13.45;3.65;;;;;;;;;;5084609;28;20267;-61
2023/05/02 06:38:18;;;;;;;19.27;4.15;;;;;;;;;;5076860;28;20270;-61
2023/05/02 06:40:44;;;;;;;20.67;4.30;;;;;;;;;;5069264;28;20234;-61
2023/05/02 06:43:09;;;;;;;16.27;4.05;;;;;;;;;;5069389;28;20210;-61
2023/05/02 06:45:35;;;;;;;18.17;3.85;;;;;;;;;;5069484;28;20214;-62
2023/05/02 06:48:00;;;;;;;19.13;4.57;;;;;;;;;;5069650;28;20537;-60
2023/05/02 06:50:25;;;;;;;14.77;4.47;;;;;;;;;;5064231;28;20206;-61
2023/05/02 06:52:50;;;;;;;19.75;4.63;;;;;;;;;;5069115;28;20230;-61
2023/05/02 06:55:16;;;;;;;20.17;4.50;;;;;;;;;;5075406;28;20232;-61
2023/05/02 06:57:42;;;;;;;17.73;4.20;;;;;;;;;;5090247;28;20247;-61
2023/05/02 07:00:08;;;;;;;15.90;4.55;;;;;;;;;;5082911;28;20670;-62
2023/05/02 07:02:33;;;;;;;14.13;3.97;;;;;;;;;;5079248;28;20205;-61
2023/05/02 07:04:58;;;;;;;14.52;4.13;;;;;;;;;;5078549;28;20220;-61
2023/05/02 07:07:23;;;;;;;17.52;4.22;;;;;;;;;;5080830;28;20217;-61
2023/05/02 07:09:49;;;;;;;13.10;3.92;;;;;;;;;;5083676;28;20572;-60
2023/05/02 07:12:14;;;;;;;17.00;3.80;;;;;;;;;;5067820;28;21244;-63
2023/05/02 07:14:39;;;;;;;15.77;3.35;;;;;;;;;;5069999;28;20214;-61
2023/05/02 07:17:05;;;;;;;15.95;3.45;;;;;;;;;;5069520;28;20685;-62
2023/05/02 07:19:30;;;;;;;13.02;3.08;;;;;;;;;;5068804;28;20214;-62
2023/05/02 07:21:56;;;;;;;16.60;3.78;;;;;;;;;;5069258;28;20214;-62
2023/05/02 07:24:21;;;;;;;14.65;3.08;;;;;;;;;;5069159;28;20226;-62
2023/05/02 07:26:46;;;;;;;16.58;3.00;;;;;;;;;;5068690;28;20570;-61
2023/05/02 07:29:11;;;;;;;14.52;2.88;;;;;;;;;;5069086;28;20213;-61
2023/05/02 07:31:37;;;;;;;11.38;2.80;;;;;;;;;;5072837;28;20230;-61
2023/05/02 07:34:02;;;;;;;12.70;3.20;;;;;;;;;;5080026;28;20537;-61
2023/05/02 07:36:27;;;;;;;16.05;3.20;;;;;;;;;;5089356;28;20300;-61
2023/05/02 07:38:53;;;;;;;12.48;2.80;;;;;;;;;;5089641;28;20206;-61
2023/05/02 07:41:18;;;;;;;16.87;3.30;;;;;;;;;;5087664;28;20416;-62
2023/05/02 07:43:43;;;;;;;12.82;2.60;;;;;;;;;;5089755;28;20237;-62
2023/05/02 07:46:09;;;;;;;14.88;4.90;;;;;;;;;;5089407;28;20240;-62
2023/05/02 07:48:35;;;;;;;15.98;4.05;;;;;;;;;;5088927;28;20327;-62
2023/05/02 07:51:05;;;;;;;15.00;3.88;;;;;;;;;;5087831;28;20710;-62
2023/05/02 07:53:30;;;;;;;10.93;2.92;;;;;;;;;;5093086;28;20202;-61
2023/05/02 07:55:55;;;;;;;13.48;3.50;;;;;;;;;;5092780;28;20257;-61
2023/05/02 07:58:20;;;;;;;14.40;3.25;;;;;;;;;;5092923;28;20232;-61
2023/05/02 08:00:46;;;;;;;12.35;3.03;;;;;;;;;;5093523;28;20226;-61
2023/05/02 08:03:11;;;;;;;12.15;3.20;;;;;;;;;;5092269;28;20221;-61
2023/05/02 08:05:36;;;;;;;11.30;3.03;;;;;;;;;;5086997;28;20236;-61
2023/05/02 08:08:02;;;;;;;10.10;2.83;;;;;;;;;;5072460;28;20283;-60
2023/05/02 08:10:28;;;;;;;7.22;2.33;;;;;;;;;;5086279;28;20229;-62
2023/05/02 08:12:53;;;;;;;9.23;2.38;;;;;;;;;;5092969;28;20245;-62
2023/05/02 08:15:18;;;;;;;9.23;2.47;;;;;;;;;;5091945;28;20285;-62
2023/05/02 08:17:43;;;;;;;10.15;2.75;;;;;;;;;;5074290;28;20213;-62
2023/05/02 08:20:09;;;;;;;9.18;2.35;;;;;;;;;;5072040;28;20214;-61
2023/05/02 08:22:34;;;;;;;12.30;2.65;;;;;;;;;;5071942;28;20203;-61
2023/05/02 08:25:00;;;;;;;9.02;2.28;;;;;;;;;;5071453;28;20210;-61
2023/05/02 08:27:25;;;;;;;7.70;2.22;;;;;;;;;;5070858;28;20230;-62
2023/05/02 08:29:50;;;;;;;8.70;2.50;;;;;;;;;;5071198;28;20505;-60
2023/05/02 08:32:15;;;;;;;8.00;2.28;;;;;;;;;;5072187;28;20242;-60
2023/05/02 08:34:41;;;;;;;8.38;2.38;;;;;;;;;;5072376;28;20214;-60
2023/05/02 08:37:07;;;;;;;8.80;1.92;;;;;;;;;;5071214;28;20411;-61
2023/05/02 08:39:32;;;;;;;8.75;2.13;;;;;;;;;;5072598;28;20571;-60
2023/05/02 08:41:57;;;;;;;6.68;2.33;;;;;;;;;;5072331;28;20211;-61
2023/05/02 08:44:22;;;;;;;6.85;1.92;;;;;;;;;;5070904;28;20727;-61
2023/05/02 08:46:48;;;;;;;9.40;1.92;;;;;;;;;;5072547;28;20210;-61
2023/05/02 08:49:13;;;;;;;9.07;2.30;;;;;;;;;;5070412;28;20297;-61
2023/05/02 08:51:38;;;;;;;8.57;1.63;;;;;;;;;;5069981;28;20218;-62
2023/05/02 08:54:04;;;;;;;10.07;3.53;;;;;;;;;;5071653;28;20213;-61
2023/05/02 08:56:29;;;;;;;7.60;1.70;;;;;;;;;;5070925;28;20233;-62
2023/05/02 08:58:54;;;;;;;8.85;2.17;;;;;;;;;;5071225;28;20621;-61
2023/05/02 09:01:21;;;;;;;6.82;2.20;;;;;;;;;;5071731;28;20226;-61
2023/05/02 09:03:47;;;;;;;7.13;1.90;;;;;;;;;;5070899;28;20233;-62
2023/05/02 09:06:13;;;;;;;6.35;1.92;;;;;;;;;;5081565;28;20668;-61
2023/05/02 09:08:39;;;;;;;5.93;1.60;;;;;;;;;;5090781;28;20351;-61
2023/05/02 09:11:04;;;;;;;8.27;2.05;;;;;;;;;;5072298;28;20246;-62
2023/05/02 09:13:35;;;;;;;8.88;2.03;;;;;;;;;;5069640;28;20308;-62
2023/05/02 09:16:01;;;;;;;8.27;2.13;;;;;;;;;;5067438;28;20199;-61
2023/05/02 09:18:29;;;;;;;8.73;1.90;;;;;;;;;;5071417;28;20234;-61
2023/05/02 09:20:54;;;;;;;7.93;2.30;;;;;;;;;;5070815;28;20207;-62
2023/05/02 09:23:19;;;;;;;7.97;2.05;;;;;;;;;;5071256;28;20213;-63
2023/05/02 09:25:45;;;;;;;7.50;2.10;;;;;;;;;;5070880;28;20623;-61
2023/05/02 09:28:10;;;;;;;8.13;1.90;;;;;;;;;;5083632;28;20214;-61
2023/05/02 09:30:35;;;;;;;11.40;2.03;;;;;;;;;;5091570;28;20665;-61
2023/05/02 09:33:00;;;;;;;9.68;2.00;;;;;;;;;;5090539;28;20214;-62
2023/05/02 09:35:26;;;;;;;10.35;2.45;;;;;;;;;;5091750;28;20235;-61
2023/05/02 09:37:52;;;;;;;5.00;1.55;;;;;;;;;;5091632;28;20787;-61
2023/05/02 09:40:18;;;;;;;8.07;1.92;;;;;;;;;;5088735;28;20214;-61
2023/05/02 09:42:43;;;;;;;6.30;1.90;;;;;;;;;;5091694;28;20210;-61
2023/05/02 09:45:16;;;;;;;4.03;1.50;;;;;;;;;;5090757;28;20241;-61
2023/05/02 09:47:42;;;;;;;8.95;2.10;;;;;;;;;;5089277;28;20240;-61
2023/05/02 09:50:08;;;;;;;8.30;2.25;;;;;;;;;;5090728;28;20218;-61
2023/05/02 09:52:33;;;;;;;5.32;1.63;;;;;;;;;;5091240;28;20311;-61
2023/05/02 09:54:58;;;;;;;5.43;1.52;;;;;;;;;;5090201;28;20217;-62
2023/05/02 09:57:37;;;;;;;4.95;1.73;;;;;;;;;;5090874;28;20673;-62
2023/05/02 10:00:03;;;;;;;7.20;1.70;;;;;;;;;;5090775;28;20251;-62
2023/05/02 10:02:29;;;;;;;9.90;1.75;;;;;;;;;;5090606;28;20245;-61
2023/05/02 10:04:54;;;;;;;6.03;1.70;;;;;;;;;;5091002;28;20719;-61
2023/05/02 10:07:19;;;;;;;6.60;1.70;;;;;;;;;;5069089;28;20217;-62
2023/05/02 10:09:45;;;;;;;8.50;2.20;;;;;;;;;;5077922;28;20703;-61
2023/05/02 10:12:12;;;;;;;6.57;1.90;;;;;;;;;;5090222;28;20313;-62
2023/05/02 10:14:38;;;;;;;7.22;2.38;;;;;;;;;;5089152;28;20689;-61
2023/05/02 10:17:04;;;;;;;6.78;2.05;;;;;;;;;;5076340;28;20214;-61
2023/05/02 10:19:33;;;;;;;5.30;2.50;;;;;;;;;;5070549;28;20210;-62
2023/05/02 10:21:58;;;;;;;8.18;2.15;;;;;;;;;;5068284;28;20211;-61
2023/05/02 10:24:24;;;;;;;9.27;2.10;;;;;;;;;;5069939;28;20649;-61
2023/05/02 10:26:49;;;;;;;5.95;1.80;;;;;;;;;;5070305;28;20074;-61
2023/05/02 10:29:14;;;;;;;8.43;2.30;;;;;;;;;;5064148;28;20210;-61
2023/05/02 10:31:41;;;;;;;10.55;2.35;;;;;;;;;;5065917;28;20635;-61
2023/05/02 10:34:09;;;;;;;9.23;2.38;;;;;;;;;;5075611;28;20565;-61
2023/05/02 10:36:34;;;;;;;8.40;2.00;;;;;;;;;;5069057;28;20313;-61
2023/05/02 10:39:00;;;;;;;5.45;1.67;;;;;;;;;;5070151;28;20293;-61
2023/05/02 10:41:26;;;;;;;5.32;1.80;;;;;;;;;;5067978;28;20229;-61
2023/05/02 10:43:51;;;;;;;8.90;2.38;;;;;;;;;;5067470;28;20236;-61
2023/05/02 10:46:28;;;;;;;7.55;2.25;;;;;;;;;;5089080;28;20239;-61
2023/05/02 10:49:01;;;;;;;9.02;2.67;;;;;;;;;;5069742;28;20220;-61
2023/05/02 10:51:28;;;;;;;9.07;2.20;;;;;;;;;;5067114;28;20224;-61
2023/05/02 10:53:53;;;;;;;8.52;2.00;;;;;;;;;;5068628;28;20206;-61
2023/05/02 10:56:21;;;;;;;8.15;2.20;;;;;;;;;;5069334;28;20237;-61
2023/05/02 10:58:47;;;;;;;5.65;2.45;;;;;;;;;;5063869;28;20577;-61
2023/05/02 11:01:26;;;;;;;7.22;2.33;;;;;;;;;;5067672;28;20293;-61
2023/05/02 11:03:53;;;;;;;7.30;2.28;;;;;;;;;;5069811;28;20305;-61
2023/05/02 11:06:18;;;;;;;8.98;2.15;;;;;;;;;;5080171;28;20213;-61
2023/05/02 11:08:43;;;;;;;8.90;2.60;;;;;;;;;;5071903;28;20296;-61
2023/05/02 11:11:27;;;;;;;6.93;2.17;;;;;;;;;;5068503;28;20230;-62
2023/05/02 11:13:52;;;;;;;8.05;2.30;;;;;;;;;;5064258;28;20383;-61
2023/05/02 11:16:18;;;;;;;7.85;2.17;;;;;;;;;;5064336;28;20211;-62
2023/05/02 11:18:57;;;;;;;8.65;2.40;;;;;;;;;;5066389;28;20203;-62
2023/05/02 11:21:24;;;;;;;10.60;2.65;;;;;;;;;;5069094;28;20289;-62
2023/05/02 11:23:49;;;;;;;5.70;2.00;;;;;;;;;;5068982;28;20214;-63
2023/05/02 11:26:24;;;;;;;10.45;2.38;;;;;;;;;;5067676;28;20263;-62
2023/05/02 11:28:50;;;;;;;8.73;2.53;;;;;;;;;;5087302;28;20213;-62
2023/05/02 11:31:25;;;;;;;7.78;2.30;;;;;;;;;;5087719;28;20222;-63
2023/05/02 11:33:56;;;;;;;8.70;2.63;;;;;;;;;;5088624;28;20213;-63
2023/05/02 11:36:29;;;;;;;9.68;2.67;;;;;;;;;;5088782;28;20291;-63
2023/05/02 11:38:54;;;;;;;9.48;2.53;;;;;;;;;;5089668;28;20213;-62
2023/05/02 11:41:19;;;;;;;8.73;2.63;;;;;;;;;;5088226;28;20216;-62
2023/05/02 11:43:45;;;;;;;9.25;2.22;;;;;;;;;;5089349;28;20267;-62
2023/05/02 11:46:10;;;;;;;10.13;2.70;;;;;;;;;;5089091;28;20211;-62
2023/05/02 11:48:35;;;;;;;7.07;2.25;;;;;;;;;;5087474;28;20266;-63
2023/05/02 11:51:02;;;;;;;12.88;2.58;;;;;;;;;;5089008;28;20234;-63
2023/05/02 11:53:28;;;;;;;6.22;2.13;;;;;;;;;;5088691;28;20555;-63
2023/05/02 11:55:54;;;;;;;12.65;2.72;;;;;;;;;;5089681;28;20746;-63
2023/05/02 11:58:21;;;;;;;10.80;2.40;;;;;;;;;;5088705;28;20210;-62
2023/05/02 12:00:47;;;;;;;9.05;2.85;;;;;;;;;;5088780;28;20209;-63
2023/05/02 12:03:26;;;;;;;7.75;2.65;;;;;;;;;;5088889;28;20666;-63
2023/05/02 12:05:52;;;;;;;8.50;2.88;;;;;;;;;;5081302;28;20290;-62
2023/05/02 12:08:19;;;;;;;10.10;2.58;;;;;;;;;;5068161;28;20301;-62
2023/05/02 12:10:44;;;;;;;11.88;3.25;;;;;;;;;;5085518;28;20733;-62
2023/05/02 12:13:10;;;;;;;11.02;2.92;;;;;;;;;;5088418;28;20321;-63
2023/05/02 12:15:35;;;;;;;8.18;2.58;;;;;;;;;;5087760;28;20206;-63
2023/05/02 12:18:00;;;;;;;10.10;2.90;;;;;;;;;;5065038;28;20213;-63
2023/05/02 12:20:26;;;;;;;10.95;2.50;;;;;;;;;;5069088;28;20214;-62
2023/05/02 12:22:51;;;;;;;9.25;2.45;;;;;;;;;;5067056;28;20267;-63
2023/05/02 12:25:16;;;;;;;5.35;2.30;;;;;;;;;;5068836;28;20605;-63
2023/05/02 12:27:41;;;;;;;7.43;2.40;;;;;;;;;;5073104;28;20214;-62
2023/05/02 12:30:07;;;;;;;8.35;2.55;;;;;;;;;;5067877;28;20207;-62
2023/05/02 12:32:33;;;;;;;8.45;2.42;;;;;;;;;;5068890;28;20226;-63
2023/05/02 12:34:59;;;;;;;7.28;2.47;;;;;;;;;;5069054;28;20211;-63
2023/05/02 12:37:24;;;;;;;8.73;2.75;;;;;;;;;;5066490;28;20214;-63
2023/05/02 12:39:50;;;;;;;9.18;2.97;;;;;;;;;;5071339;28;20768;-63
2023/05/02 12:42:15;;;;;;;9.32;3.10;;;;;;;;;;5072073;28;20206;-63
2023/05/02 12:44:41;;;;;;;7.35;2.47;;;;;;;;;;5071251;28;20230;-63
2023/05/02 12:47:07;;;;;;;7.53;2.53;;;;;;;;;;5071960;28;20249;-63
2023/05/02 12:49:32;;;;;;;8.05;2.50;;;;;;;;;;5070532;28;20260;-63
2023/05/02 12:51:58;;;;;;;9.73;2.65;;;;;;;;;;5072026;28;20709;-63
2023/05/02 12:54:25;;;;;;;7.60;2.75;;;;;;;;;;5071965;28;20203;-62
2023/05/02 12:56:51;;;;;;;10.05;3.05;;;;;;;;;;5071667;28;20305;-62
2023/05/02 12:59:26;;;;;;;10.52;2.92;;;;;;;;;;5069903;28;20301;-62
2023/05/02 13:01:51;;;;;;;10.77;3.45;;;;;;;;;;5072249;28;20221;-62
2023/05/02 13:04:16;;;;;;;12.05;3.10;;;;;;;;;;5070740;28;20221;-63
2023/05/02 13:06:42;;;;;;;10.30;3.17;;;;;;;;;;5086933;28;20206;-63
2023/05/02 13:09:07;;;;;;;11.43;3.20;;;;;;;;;;5088877;28;20207;-63
2023/05/02 13:11:33;;;;;;;10.52;3.05;;;;;;;;;;5070946;28;20233;-63
2023/05/02 13:14:00;;;;;;;8.15;3.08;;;;;;;;;;5070183;28;20225;-63
2023/05/02 13:16:25;;;;;;;12.90;3.42;;;;;;;;;;5079181;28;20194;-62
2023/05/02 13:18:50;;;;;;;7.97;3.45;;;;;;;;;;5090994;28;20260;-63
2023/05/02 13:21:16;;;;;;;10.43;3.63;;;;;;;;;;5090181;28;20579;-62
2023/05/02 13:23:43;;;;;;;9.35;3.22;;;;;;;;;;5091933;28;20213;-63
2023/05/02 13:26:08;;;;;;;8.30;3.28;;;;;;;;;;5089406;28;20293;-62
2023/05/02 13:28:34;;;;;;;10.15;3.50;;;;;;;;;;5071523;28;20305;-63
2023/05/02 13:31:00;;;;;;;10.25;3.30;;;;;;;;;;5071443;28;20206;-62
2023/05/02 13:33:25;;;;;;;12.20;3.60;;;;;;;;;;5070039;28;20217;-63
2023/05/02 13:35:50;;;;;;;10.25;3.35;;;;;;;;;;5071573;28;20309;-63
2023/05/02 13:38:15;;;;;;;8.00;3.10;;;;;;;;;;5070979;28;20678;-63
2023/05/02 13:40:41;;;;;;;9.90;3.25;;;;;;;;;;5070868;28;20206;-62
2023/05/02 13:43:06;;;;;;;13.20;3.58;;;;;;;;;;5070754;28;20214;-62
2023/05/02 13:45:32;;;;;;;15.50;4.00;;;;;;;;;;5071468;28;20660;-62
2023/05/02 13:47:57;;;;;;;11.25;3.00;;;;;;;;;;5070443;28;20211;-63
2023/05/02 13:50:22;;;;;;;10.77;3.72;;;;;;;;;;5070235;28;20214;-62
2023/05/02 13:52:48;;;;;;;10.80;3.25;;;;;;;;;;5071020;28;20283;-63
2023/05/02 13:55:13;;;;;;;9.77;4.07;;;;;;;;;;5070210;28;20604;-62
2023/05/02 13:57:38;;;;;;;10.30;3.80;;;;;;;;;;5079235;28;20244;-62
2023/05/02 14:00:04;;;;;;;12.10;3.70;;;;;;;;;;5063815;28;20242;-63
2023/05/02 14:02:29;;;;;;;9.23;3.08;;;;;;;;;;5064011;28;20232;-63
2023/05/02 14:04:54;;;;;;;11.10;3.60;;;;;;;;;;5078901;28;20418;-62
2023/05/02 14:07:20;;;;;;;9.25;3.22;;;;;;;;;;5075686;28;20213;-62
2023/05/02 14:09:45;;;;;;;7.07;3.30;;;;;;;;;;5077398;28;20707;-63
2023/05/02 14:12:10;;;;;;;10.55;3.30;;;;;;;;;;5083502;28;20331;-63
2023/05/02 14:14:37;;;;;;;8.48;3.67;;;;;;;;;;5081990;28;20225;-62
2023/05/02 14:17:02;;;;;;;12.25;3.42;;;;;;;;;;5071857;28;20211;-62
2023/05/02 14:19:27;;;;;;;13.57;3.45;;;;;;;;;;5064710;28;20910;-62
2023/05/02 14:21:53;;;;;;;9.10;3.80;;;;;;;;;;5057782;28;20357;-62
2023/05/02 14:24:18;;;;;;;11.38;3.10;;;;;;;;;;5056942;28;20222;-62
2023/05/02 14:26:44;;;;;;;11.10;3.30;;;;;;;;;;5059087;28;20524;-63
2023/05/02 14:29:09;;;;;;;9.85;2.85;;;;;;;;;;5061842;28;20206;-62